Time;durP1;ratioP1;P1;durP2;ratioP2;P2;SDS_P1;SDS_P2;PMS_P1;PMS_P2;Temp;Humidity;BMP_temperature;BMP_pressure;BME280_temperature;BME280_humidity;BME280_pressure;Samples;Min_cycle;Max_cycle;Signal;HPM_P1;HPM_P2
2022/07/21 00:01:25;;;;;;;;;;;19.50;99.90;;;;;;4590186;19;19915;-30
2022/07/21 00:02:57;;;;;;;;;;;19.50;99.90;;;;;;4590597;19;20324;-32
2022/07/21 00:04:28;;;;;;;;;;;19.50;99.90;;;;;;4590412;19;19919;-32
2022/07/21 00:05:59;;;;;;;;;;;19.50;99.90;;;;;;4590176;19;19931;-34
2022/07/21 00:07:30;;;;;;;;;;;19.40;99.90;;;;;;4590960;19;19933;-31
2022/07/21 00:09:02;;;;;;;;;;;19.50;99.90;;;;;;4593408;19;20355;-33
2022/07/21 00:10:33;;;;;;;;;;;19.50;99.90;;;;;;4594888;19;19925;-32
2022/07/21 00:12:04;;;;;;;;;;;19.50;99.90;;;;;;4594199;19;20253;-32
2022/07/21 00:13:35;;;;;;;;;;;19.50;99.90;;;;;;4595910;19;19919;-31
2022/07/21 00:15:06;;;;;;;;;;;19.50;99.90;;;;;;4593663;19;19935;-32
2022/07/21 00:16:37;;;;;;;;;;;19.40;99.90;;;;;;4593357;19;19914;-33
2022/07/21 00:18:08;;;;;;;;;;;19.50;99.90;;;;;;4595735;19;19921;-32
2022/07/21 00:19:39;;;;;;;;;;;19.40;99.90;;;;;;4594608;19;19919;-32
2022/07/21 00:21:10;;;;;;;;;;;19.40;99.90;;;;;;4594561;19;20330;-33
2022/07/21 00:22:41;;;;;;;;;;;19.40;99.90;;;;;;4594765;19;19918;-32
2022/07/21 00:24:12;;;;;;;;;;;19.40;99.90;;;;;;4595476;19;19919;-30
2022/07/21 00:25:42;;;;;;;;;;;19.40;99.90;;;;;;4594736;19;20317;-31
2022/07/21 00:27:14;;;;;;;;;;;19.40;99.90;;;;;;4593694;19;19941;-33
2022/07/21 00:28:44;;;;;;;;;;;19.40;99.90;;;;;;4595875;19;20396;-32
2022/07/21 00:30:15;;;;;;;;;;;19.40;99.90;;;;;;4594822;19;20321;-32
2022/07/21 00:31:46;;;;;;;;;;;19.40;99.90;;;;;;4595480;19;19919;-32
2022/07/21 00:33:17;;;;;;;;;;;19.40;99.90;;;;;;4595322;19;19933;-32
2022/07/21 00:34:48;;;;;;;;;;;19.40;99.90;;;;;;4595505;19;19918;-33
2022/07/21 00:36:19;;;;;;;;;;;19.40;99.90;;;;;;4594268;19;19931;-33
2022/07/21 00:37:51;;;;;;;;;;;19.40;99.90;;;;;;4594780;19;19915;-32
2022/07/21 00:39:22;;;;;;;;;;;19.40;99.90;;;;;;4594237;19;20005;-31
2022/07/21 00:40:54;;;;;;;;;;;19.40;99.90;;;;;;4592307;19;20278;-32
2022/07/21 00:42:26;;;;;;;;;;;19.40;99.90;;;;;;4595273;19;20333;-31
2022/07/21 00:43:57;;;;;;;;;;;19.40;99.90;;;;;;4592803;19;19922;-32
2022/07/21 00:45:28;;;;;;;;;;;19.40;99.90;;;;;;4594761;19;19922;-31
2022/07/21 00:46:59;;;;;;;;;;;19.40;99.90;;;;;;4593371;19;19982;-32
2022/07/21 00:48:30;;;;;;;;;;;19.40;99.90;;;;;;4594400;19;19922;-32
2022/07/21 00:50:02;;;;;;;;;;;19.40;99.90;;;;;;4592910;19;20421;-32
2022/07/21 00:51:33;;;;;;;;;;;19.40;99.90;;;;;;4592779;19;19921;-31
2022/07/21 00:53:04;;;;;;;;;;;19.40;99.90;;;;;;4595155;19;20272;-32
2022/07/21 00:54:35;;;;;;;;;;;19.40;99.90;;;;;;4593666;19;19919;-31
2022/07/21 00:56:06;;;;;;;;;;;19.40;99.90;;;;;;4592869;19;19982;-31
2022/07/21 00:57:37;;;;;;;;;;;19.40;99.90;;;;;;4592645;19;19951;-32
2022/07/21 00:59:08;;;;;;;;;;;19.40;99.90;;;;;;4594896;19;19919;-32
2022/07/21 01:00:39;;;;;;;;;;;19.40;99.90;;;;;;4593749;19;19919;-33
2022/07/21 01:02:10;;;;;;;;;;;19.40;99.90;;;;;;4594097;19;19915;-32
2022/07/21 01:03:41;;;;;;;;;;;19.40;99.90;;;;;;4594538;19;19937;-31
2022/07/21 01:05:14;;;;;;;;;;;19.40;99.90;;;;;;4593024;19;19927;-32
2022/07/21 01:06:45;;;;;;;;;;;19.40;99.90;;;;;;4593810;19;19911;-31
2022/07/21 01:08:16;;;;;;;;;;;19.40;99.90;;;;;;4593456;19;19922;-32
2022/07/21 01:09:47;;;;;;;;;;;19.40;99.90;;;;;;4594296;19;19939;-31
2022/07/21 01:11:20;;;;;;;;;;;19.40;99.90;;;;;;4591715;19;19915;-33
2022/07/21 01:12:50;;;;;;;;;;;19.40;99.90;;;;;;4595011;19;20273;-31
2022/07/21 01:14:21;;;;;;;;;;;19.40;99.90;;;;;;4593912;19;19914;-31
2022/07/21 01:15:54;;;;;;;;;;;19.40;99.90;;;;;;4593848;19;19982;-33
2022/07/21 01:17:25;;;;;;;;;;;19.40;99.90;;;;;;4593813;19;19926;-31
2022/07/21 01:18:56;;;;;;;;;;;19.40;99.90;;;;;;4594177;19;20012;-32
2022/07/21 01:20:27;;;;;;;;;;;19.40;99.90;;;;;;4590897;19;19915;-33
2022/07/21 01:21:58;;;;;;;;;;;19.40;99.90;;;;;;4591603;19;19970;-31
2022/07/21 01:23:29;;;;;;;;;;;19.40;99.90;;;;;;4594659;19;19922;-34
2022/07/21 01:25:00;;;;;;;;;;;19.40;99.90;;;;;;4593454;19;19927;-32
2022/07/21 01:26:31;;;;;;;;;;;19.40;99.90;;;;;;4594468;19;19919;-33
2022/07/21 01:28:02;;;;;;;;;;;19.40;99.90;;;;;;4593423;19;19919;-32
2022/07/21 01:29:33;;;;;;;;;;;19.40;99.90;;;;;;4594498;19;20621;-32
2022/07/21 01:31:04;;;;;;;;;;;19.40;99.90;;;;;;4593082;19;19929;-32
2022/07/21 01:32:35;;;;;;;;;;;19.40;99.90;;;;;;4592800;19;19918;-32
2022/07/21 01:34:07;;;;;;;;;;;19.40;99.90;;;;;;4593643;19;19923;-32
2022/07/21 01:35:37;;;;;;;;;;;19.40;99.90;;;;;;4592094;19;19919;-32
2022/07/21 01:37:08;;;;;;;;;;;19.40;99.90;;;;;;4594442;19;19925;-32
2022/07/21 01:42:18;;;;;;;;;;;19.30;99.90;;;;;;4593842;19;20328;-32
2022/07/21 01:43:49;;;;;;;;;;;19.40;99.90;;;;;;4593417;19;19918;-32
2022/07/21 01:45:20;;;;;;;;;;;19.40;99.90;;;;;;4592749;19;19924;-33
2022/07/21 01:46:52;;;;;;;;;;;19.30;99.90;;;;;;4592341;19;20256;-33
2022/07/21 01:48:22;;;;;;;;;;;19.40;99.90;;;;;;4593773;19;19924;-32
2022/07/21 01:49:53;;;;;;;;;;;19.40;99.90;;;;;;4592366;19;19923;-32
2022/07/21 01:51:24;;;;;;;;;;;19.40;99.90;;;;;;4593740;19;20376;-32
2022/07/21 01:52:55;;;;;;;;;;;19.40;99.90;;;;;;4593149;19;20264;-32
2022/07/21 01:54:26;;;;;;;;;;;19.30;99.90;;;;;;4591918;19;19914;-31
2022/07/21 01:55:57;;;;;;;;;;;19.40;99.90;;;;;;4593180;19;19926;-31
2022/07/21 01:57:28;;;;;;;;;;;19.40;99.90;;;;;;4592422;19;20325;-31
2022/07/21 01:58:59;;;;;;;;;;;19.30;99.90;;;;;;4593949;19;20359;-33
2022/07/21 02:00:30;;;;;;;;;;;19.40;99.90;;;;;;4591912;19;19936;-32
2022/07/21 02:02:01;;;;;;;;;;;19.30;99.90;;;;;;4593665;19;19915;-33
2022/07/21 02:03:32;;;;;;;;;;;19.30;99.90;;;;;;4593133;19;20313;-32
2022/07/21 02:05:03;;;;;;;;;;;19.40;99.90;;;;;;4591790;19;20345;-31
2022/07/21 02:06:34;;;;;;;;;;;19.30;99.90;;;;;;4593659;19;19952;-31
2022/07/21 02:08:05;;;;;;;;;;;19.30;99.90;;;;;;4592246;19;19943;-32
2022/07/21 02:09:36;;;;;;;;;;;19.30;99.90;;;;;;4593305;19;19915;-33
2022/07/21 02:11:07;;;;;;;;;;;19.30;99.90;;;;;;4593084;19;19967;-32
2022/07/21 02:12:38;;;;;;;;;;;19.30;99.90;;;;;;4592258;19;19923;-32
2022/07/21 02:14:09;;;;;;;;;;;19.20;99.90;;;;;;4592227;19;19941;-32
2022/07/21 02:15:39;;;;;;;;;;;19.20;99.90;;;;;;4593664;19;19914;-32
2022/07/21 02:17:11;;;;;;;;;;;19.30;99.90;;;;;;4592194;19;19922;-30
2022/07/21 02:18:43;;;;;;;;;;;19.30;99.90;;;;;;4592600;19;20006;-32
2022/07/21 02:20:14;;;;;;;;;;;19.20;99.90;;;;;;4591870;19;19919;-32
2022/07/21 02:21:44;;;;;;;;;;;19.20;99.90;;;;;;4593223;19;19943;-32
2022/07/21 02:23:16;;;;;;;;;;;19.20;99.90;;;;;;4591235;19;19950;-31
2022/07/21 02:24:47;;;;;;;;;;;19.20;99.90;;;;;;4591635;19;20261;-31
2022/07/21 02:26:18;;;;;;;;;;;19.10;99.90;;;;;;4593291;19;19911;-31
2022/07/21 02:27:49;;;;;;;;;;;19.20;99.90;;;;;;4592031;19;19939;-33
2022/07/21 02:29:20;;;;;;;;;;;19.20;99.90;;;;;;4592492;19;20321;-32
2022/07/21 02:30:51;;;;;;;;;;;19.20;99.90;;;;;;4591408;19;19922;-32
2022/07/21 02:32:21;;;;;;;;;;;19.20;99.90;;;;;;4592161;19;19915;-32
2022/07/21 02:33:52;;;;;;;;;;;19.20;99.90;;;;;;4591935;19;19922;-31
2022/07/21 02:35:23;;;;;;;;;;;19.20;99.90;;;;;;4592167;19;20337;-32
2022/07/21 02:36:54;;;;;;;;;;;19.30;99.90;;;;;;4592019;19;19930;-33
2022/07/21 02:38:25;;;;;;;;;;;19.30;99.90;;;;;;4590781;19;19982;-32
2022/07/21 02:39:56;;;;;;;;;;;19.20;99.90;;;;;;4592390;19;19919;-32
2022/07/21 02:41:27;;;;;;;;;;;19.20;99.90;;;;;;4590617;19;19946;-32
2022/07/21 02:42:58;;;;;;;;;;;19.20;99.90;;;;;;4591275;19;19918;-32
2022/07/21 02:44:30;;;;;;;;;;;19.20;99.90;;;;;;4591943;19;19930;-32
2022/07/21 02:46:01;;;;;;;;;;;19.20;99.90;;;;;;4592803;19;19968;-31
2022/07/21 02:47:32;;;;;;;;;;;19.20;99.90;;;;;;4591861;19;19943;-32
2022/07/21 02:49:03;;;;;;;;;;;19.20;99.90;;;;;;4591387;19;19930;-33
2022/07/21 02:50:34;;;;;;;;;;;19.20;99.90;;;;;;4590218;19;19915;-32
2022/07/21 02:52:06;;;;;;;;;;;19.20;99.90;;;;;;4590743;19;19938;-32
2022/07/21 02:53:37;;;;;;;;;;;19.20;99.90;;;;;;4591811;19;19974;-33
2022/07/21 02:55:08;;;;;;;;;;;19.20;99.90;;;;;;4592047;19;19914;-31
2022/07/21 02:56:39;;;;;;;;;;;19.20;99.90;;;;;;4591225;19;19922;-32
2022/07/21 02:58:13;;;;;;;;;;;19.20;99.90;;;;;;4591679;19;19922;-31
2022/07/21 02:59:44;;;;;;;;;;;19.20;99.90;;;;;;4590364;19;19925;-32
2022/07/21 03:01:15;;;;;;;;;;;19.20;99.90;;;;;;4591647;19;20253;-32
2022/07/21 03:02:46;;;;;;;;;;;19.20;99.90;;;;;;4591283;19;20376;-31
2022/07/21 03:04:17;;;;;;;;;;;19.20;99.90;;;;;;4592710;19;19938;-32
2022/07/21 03:05:48;;;;;;;;;;;19.20;99.90;;;;;;4591847;19;19927;-32
2022/07/21 03:07:19;;;;;;;;;;;19.20;99.90;;;;;;4592215;19;19922;-32
2022/07/21 03:08:50;;;;;;;;;;;19.10;99.90;;;;;;4591353;19;19915;-32
2022/07/21 03:10:21;;;;;;;;;;;19.20;99.90;;;;;;4590791;19;20332;-32
2022/07/21 03:11:52;;;;;;;;;;;19.20;99.90;;;;;;4592304;19;20265;-33
2022/07/21 03:13:23;;;;;;;;;;;19.20;99.90;;;;;;4590497;19;19923;-31
2022/07/21 03:14:54;;;;;;;;;;;19.20;99.90;;;;;;4592489;19;19918;-32
2022/07/21 03:16:25;;;;;;;;;;;19.20;99.90;;;;;;4591389;19;19933;-33
2022/07/21 03:17:56;;;;;;;;;;;19.20;99.90;;;;;;4592511;19;20340;-32
2022/07/21 03:19:27;;;;;;;;;;;19.20;99.90;;;;;;4591479;19;19982;-32
2022/07/21 03:20:58;;;;;;;;;;;19.10;99.90;;;;;;4590910;19;19911;-33
2022/07/21 03:22:29;;;;;;;;;;;19.10;99.90;;;;;;4592251;19;19942;-33
2022/07/21 03:24:00;;;;;;;;;;;19.10;99.90;;;;;;4590655;19;19927;-33
2022/07/21 03:25:31;;;;;;;;;;;19.10;99.90;;;;;;4591793;19;20262;-31
2022/07/21 03:27:02;;;;;;;;;;;19.10;99.90;;;;;;4591432;19;20313;-32
2022/07/21 03:28:33;;;;;;;;;;;19.10;99.90;;;;;;4592157;19;19926;-31
2022/07/21 03:30:07;;;;;;;;;;;19.10;99.90;;;;;;4589871;19;20305;-31
2022/07/21 03:31:38;;;;;;;;;;;19.10;99.90;;;;;;4591079;19;19919;-33
2022/07/21 03:33:09;;;;;;;;;;;19.10;99.90;;;;;;4590676;19;20350;-32
2022/07/21 03:34:40;;;;;;;;;;;19.10;99.90;;;;;;4590446;19;19925;-32
2022/07/21 03:36:11;;;;;;;;;;;19.10;99.90;;;;;;4590128;19;19939;-32
2022/07/21 03:37:52;;;;;;;;;;;19.10;99.90;;;;;;4591367;19;19918;-32
2022/07/21 03:39:22;;;;;;;;;;;19.10;99.90;;;;;;4590572;19;20356;-31
2022/07/21 03:40:53;;;;;;;;;;;19.10;99.90;;;;;;4589364;19;19922;-32
2022/07/21 03:42:24;;;;;;;;;;;19.10;99.90;;;;;;4591573;19;19918;-32
2022/07/21 03:43:55;;;;;;;;;;;19.10;99.90;;;;;;4588682;19;19922;-33
2022/07/21 03:45:29;;;;;;;;;;;19.10;99.90;;;;;;4591256;19;19919;-32
2022/07/21 03:47:00;;;;;;;;;;;19.10;99.90;;;;;;4590968;19;19914;-33
2022/07/21 03:48:31;;;;;;;;;;;19.10;99.90;;;;;;4590373;19;19926;-34
2022/07/21 03:50:02;;;;;;;;;;;19.20;99.90;;;;;;4590328;19;19926;-31
2022/07/21 03:51:33;;;;;;;;;;;19.20;99.90;;;;;;4590957;19;20261;-33
2022/07/21 03:53:04;;;;;;;;;;;19.20;99.90;;;;;;4591370;19;19922;-32
2022/07/21 03:54:35;;;;;;;;;;;19.20;99.90;;;;;;4588677;19;20533;-31
2022/07/21 03:56:08;;;;;;;;;;;19.20;99.90;;;;;;4589235;19;19926;-32
2022/07/21 03:57:39;;;;;;;;;;;19.20;99.90;;;;;;4589362;19;19947;-31
2022/07/21 03:59:10;;;;;;;;;;;19.20;99.90;;;;;;4591485;19;19922;-31
2022/07/21 04:00:42;;;;;;;;;;;19.20;99.90;;;;;;4589933;19;19926;-32
2022/07/21 04:02:13;;;;;;;;;;;19.20;99.90;;;;;;4589793;19;19918;-33
2022/07/21 04:03:44;;;;;;;;;;;19.20;99.90;;;;;;4591466;19;20241;-31
2022/07/21 04:05:15;;;;;;;;;;;19.20;99.90;;;;;;4589635;19;19970;-32
2022/07/21 04:06:46;;;;;;;;;;;19.20;99.90;;;;;;4591052;19;19923;-32
2022/07/21 04:08:17;;;;;;;;;;;19.20;99.90;;;;;;4590626;19;19923;-34
2022/07/21 04:09:48;;;;;;;;;;;19.20;99.90;;;;;;4590882;19;19914;-33
2022/07/21 04:11:19;;;;;;;;;;;19.20;99.90;;;;;;4589926;19;20283;-32
2022/07/21 04:12:50;;;;;;;;;;;19.20;99.90;;;;;;4590570;19;19938;-32
2022/07/21 04:14:21;;;;;;;;;;;19.20;99.90;;;;;;4590622;19;19918;-32
2022/07/21 04:15:52;;;;;;;;;;;19.30;99.90;;;;;;4589836;19;20620;-32
2022/07/21 04:17:23;;;;;;;;;;;19.30;99.90;;;;;;4591010;19;19936;-33
2022/07/21 04:18:54;;;;;;;;;;;19.30;99.90;;;;;;4590042;19;19942;-32
2022/07/21 04:20:25;;;;;;;;;;;19.30;99.90;;;;;;4590909;19;20325;-32
2022/07/21 04:21:55;;;;;;;;;;;19.30;99.90;;;;;;4588119;19;19946;-33
2022/07/21 04:23:26;;;;;;;;;;;19.30;99.90;;;;;;4590287;19;20003;-32
2022/07/21 04:24:59;;;;;;;;;;;19.30;99.90;;;;;;4589681;19;19930;-33
2022/07/21 04:26:30;;;;;;;;;;;19.30;99.90;;;;;;4589899;19;19919;-32
2022/07/21 04:28:01;;;;;;;;;;;19.30;99.90;;;;;;4590473;19;19911;-32
2022/07/21 04:29:32;;;;;;;;;;;19.40;99.90;;;;;;4589571;19;20270;-33
2022/07/21 04:31:03;;;;;;;;;;;19.40;99.90;;;;;;4590381;19;19930;-31
2022/07/21 04:32:34;;;;;;;;;;;19.40;99.90;;;;;;4588937;19;20333;-32
2022/07/21 04:34:05;;;;;;;;;;;19.40;99.90;;;;;;4588402;19;19926;-32
2022/07/21 04:35:36;;;;;;;;;;;19.40;99.90;;;;;;4588099;19;19978;-31
2022/07/21 04:37:07;;;;;;;;;;;19.40;99.90;;;;;;4591248;19;19971;-33
2022/07/21 04:38:38;;;;;;;;;;;19.40;99.90;;;;;;4589877;19;19927;-32
2022/07/21 04:40:09;;;;;;;;;;;19.50;99.90;;;;;;4590694;19;20362;-32
2022/07/21 04:41:40;;;;;;;;;;;19.50;99.90;;;;;;4588777;19;20381;-33
2022/07/21 04:43:11;;;;;;;;;;;19.50;99.90;;;;;;4588395;19;19925;-32
2022/07/21 04:44:42;;;;;;;;;;;19.50;99.90;;;;;;4589309;19;19934;-32
2022/07/21 04:46:14;;;;;;;;;;;19.50;99.90;;;;;;4588592;19;20333;-31
2022/07/21 04:47:46;;;;;;;;;;;19.50;99.90;;;;;;4590866;19;19934;-31
2022/07/21 04:49:17;;;;;;;;;;;19.50;99.90;;;;;;4587742;19;19930;-32
2022/07/21 04:50:48;;;;;;;;;;;19.60;99.90;;;;;;4590208;19;19946;-33
2022/07/21 04:52:20;;;;;;;;;;;19.60;99.90;;;;;;4589988;19;19915;-32
2022/07/21 04:53:51;;;;;;;;;;;19.60;99.90;;;;;;4590964;19;19922;-32
2022/07/21 04:55:22;;;;;;;;;;;19.60;99.90;;;;;;4592919;19;19927;-32
2022/07/21 04:56:53;;;;;;;;;;;19.60;99.90;;;;;;4593691;19;19938;-31
2022/07/21 04:58:24;;;;;;;;;;;19.60;99.90;;;;;;4595149;19;19921;-31
2022/07/21 04:59:55;;;;;;;;;;;19.60;99.90;;;;;;4593188;19;19918;-31
2022/07/21 05:01:26;;;;;;;;;;;19.60;99.90;;;;;;4593390;19;19919;-33
2022/07/21 05:02:57;;;;;;;;;;;19.70;99.90;;;;;;4594008;19;19923;-32
2022/07/21 05:04:28;;;;;;;;;;;19.70;99.90;;;;;;4593791;19;19915;-32
2022/07/21 05:05:59;;;;;;;;;;;19.70;99.90;;;;;;4593867;19;19915;-32
2022/07/21 05:07:30;;;;;;;;;;;19.70;99.90;;;;;;4594668;19;19919;-32
2022/07/21 05:09:01;;;;;;;;;;;19.70;99.90;;;;;;4593935;19;20283;-32
2022/07/21 05:10:32;;;;;;;;;;;19.80;99.90;;;;;;4593484;19;20391;-32
2022/07/21 05:12:03;;;;;;;;;;;19.80;99.90;;;;;;4594311;19;19991;-33
2022/07/21 05:13:34;;;;;;;;;;;19.80;99.90;;;;;;4593656;19;19974;-33
2022/07/21 05:15:05;;;;;;;;;;;19.80;99.90;;;;;;4594256;19;19926;-32
2022/07/21 05:16:36;;;;;;;;;;;19.80;99.90;;;;;;4592146;19;19919;-32
2022/07/21 05:18:07;;;;;;;;;;;19.80;99.90;;;;;;4592727;19;20357;-32
2022/07/21 05:19:38;;;;;;;;;;;19.80;99.90;;;;;;4593928;19;19914;-31
2022/07/21 05:21:09;;;;;;;;;;;19.90;99.90;;;;;;4592330;19;19956;-32
2022/07/21 05:22:40;;;;;;;;;;;19.90;99.90;;;;;;4593141;19;19951;-32
2022/07/21 05:24:11;;;;;;;;;;;19.90;99.90;;;;;;4593188;19;19943;-32
2022/07/21 05:25:43;;;;;;;;;;;19.90;99.90;;;;;;4593726;19;19942;-32
2022/07/21 05:27:13;;;;;;;;;;;19.90;99.90;;;;;;4593502;19;20421;-32
2022/07/21 05:28:44;;;;;;;;;;;19.90;99.90;;;;;;4594450;19;19914;-32
2022/07/21 05:30:15;;;;;;;;;;;20.00;99.90;;;;;;4593964;19;20277;-32
2022/07/21 05:31:46;;;;;;;;;;;20.00;99.90;;;;;;4594358;19;19918;-32
2022/07/21 05:33:17;;;;;;;;;;;20.00;99.90;;;;;;4593214;19;19919;-32
2022/07/21 05:34:48;;;;;;;;;;;20.00;99.90;;;;;;4594084;19;19922;-32
2022/07/21 05:36:19;;;;;;;;;;;20.00;99.90;;;;;;4593599;19;19936;-31
2022/07/21 05:37:50;;;;;;;;;;;20.00;99.90;;;;;;4594777;19;19925;-33
2022/07/21 05:39:21;;;;;;;;;;;20.00;99.90;;;;;;4592368;19;20250;-32
2022/07/21 05:40:52;;;;;;;;;;;20.00;99.90;;;;;;4593629;19;20318;-31
2022/07/21 05:42:23;;;;;;;;;;;20.00;99.90;;;;;;4592254;19;19922;-31
2022/07/21 05:43:54;;;;;;;;;;;20.00;99.90;;;;;;4593543;19;19914;-34
2022/07/21 05:45:25;;;;;;;;;;;20.00;99.90;;;;;;4592228;19;20262;-32
2022/07/21 05:46:56;;;;;;;;;;;20.00;99.90;;;;;;4593016;19;19947;-33
2022/07/21 05:48:26;;;;;;;;;;;20.10;99.90;;;;;;4593684;19;19923;-31
2022/07/21 05:49:58;;;;;;;;;;;20.00;99.90;;;;;;4592802;19;19986;-32
2022/07/21 05:51:29;;;;;;;;;;;20.00;99.90;;;;;;4592077;19;19970;-32
2022/07/21 05:53:00;;;;;;;;;;;20.00;99.90;;;;;;4592295;19;19934;-32
2022/07/21 05:54:30;;;;;;;;;;;20.00;99.90;;;;;;4592631;19;19978;-33
2022/07/21 05:56:02;;;;;;;;;;;19.90;99.90;;;;;;4589888;19;19942;-32
2022/07/21 05:57:33;;;;;;;;;;;20.00;99.90;;;;;;4590519;19;19948;-33
2022/07/21 05:59:03;;;;;;;;;;;20.00;99.90;;;;;;4592536;19;19934;-32
2022/07/21 06:00:34;;;;;;;;;;;20.00;99.90;;;;;;4592233;19;19918;-34
2022/07/21 06:02:06;;;;;;;;;;;20.00;99.90;;;;;;4593214;19;20238;-32
2022/07/21 06:03:37;;;;;;;;;;;20.10;99.90;;;;;;4591318;19;19919;-32
2022/07/21 06:05:10;;;;;;;;;;;20.20;99.90;;;;;;4592991;19;19937;-32
2022/07/21 06:06:41;;;;;;;;;;;20.30;99.90;;;;;;4590124;19;19923;-33
2022/07/21 06:08:12;;;;;;;;;;;20.30;99.90;;;;;;4590573;19;20265;-33
2022/07/21 06:09:43;;;;;;;;;;;20.30;99.90;;;;;;4592658;19;19921;-32
2022/07/21 06:11:16;;;;;;;;;;;20.30;99.90;;;;;;4592812;19;19923;-33
2022/07/21 06:12:55;;;;;;;;;;;20.30;99.90;;;;;;4591942;19;19931;-33
2022/07/21 06:14:26;;;;;;;;;;;20.30;99.90;;;;;;4592796;19;19934;-33
2022/07/21 06:15:57;;;;;;;;;;;20.30;99.90;;;;;;4593122;19;20263;-32
2022/07/21 06:17:31;;;;;;;;;;;20.40;99.90;;;;;;4591916;19;19922;-32
2022/07/21 06:19:02;;;;;;;;;;;20.40;99.90;;;;;;4593053;19;19926;-32
2022/07/21 06:20:43;;;;;;;;;;;20.40;99.90;;;;;;4589633;19;20341;-32
2022/07/21 06:22:18;;;;;;;;;;;20.40;99.90;;;;;;4590724;19;19910;-31
2022/07/21 06:23:49;;;;;;;;;;;20.40;99.90;;;;;;4592169;19;19919;-32
2022/07/21 06:25:20;;;;;;;;;;;20.50;99.90;;;;;;4592135;19;19927;-33
2022/07/21 06:26:57;;;;;;;;;;;20.50;99.90;;;;;;4593309;19;19921;-32
2022/07/21 06:28:28;;;;;;;;;;;20.50;99.90;;;;;;4592280;19;19954;-33
2022/07/21 06:30:00;;;;;;;;;;;20.50;99.90;;;;;;4592589;19;19978;-32
2022/07/21 06:31:31;;;;;;;;;;;20.50;99.90;;;;;;4591999;19;19922;-33
2022/07/21 06:33:04;;;;;;;;;;;20.50;99.90;;;;;;4591654;19;19935;-32
2022/07/21 06:34:34;;;;;;;;;;;20.60;99.90;;;;;;4592959;19;19996;-33
2022/07/21 06:36:06;;;;;;;;;;;20.60;99.90;;;;;;4591685;19;19933;-33
2022/07/21 06:37:37;;;;;;;;;;;20.60;99.90;;;;;;4591889;19;19918;-33
2022/07/21 06:39:08;;;;;;;;;;;20.60;99.90;;;;;;4591775;19;20357;-34
2022/07/21 06:40:41;;;;;;;;;;;20.50;99.90;;;;;;4592275;19;20342;-33
2022/07/21 06:42:12;;;;;;;;;;;20.60;99.90;;;;;;4591042;19;19918;-33
2022/07/21 06:43:43;;;;;;;;;;;20.60;99.90;;;;;;4592949;19;19943;-32
2022/07/21 06:45:14;;;;;;;;;;;20.60;99.90;;;;;;4592091;19;19934;-33
2022/07/21 06:46:45;;;;;;;;;;;20.70;99.90;;;;;;4591331;19;19914;-34
2022/07/21 06:48:16;;;;;;;;;;;20.70;99.90;;;;;;4591145;19;20409;-33
2022/07/21 06:49:47;;;;;;;;;;;20.70;99.90;;;;;;4590589;19;20248;-33
2022/07/21 06:51:18;;;;;;;;;;;20.70;99.90;;;;;;4591763;19;19935;-33
2022/07/21 06:52:49;;;;;;;;;;;20.70;99.90;;;;;;4590948;19;19934;-34
2022/07/21 06:54:20;;;;;;;;;;;20.80;99.90;;;;;;4592602;19;19942;-33
2022/07/21 06:55:55;;;;;;;;;;;20.80;99.90;;;;;;4591512;19;19918;-33
2022/07/21 06:57:26;;;;;;;;;;;20.80;99.90;;;;;;4592004;19;19926;-32
2022/07/21 06:58:57;;;;;;;;;;;20.80;99.90;;;;;;4591725;19;19915;-33
2022/07/21 07:00:28;;;;;;;;;;;20.80;99.90;;;;;;4590936;19;19914;-33
2022/07/21 07:01:59;;;;;;;;;;;20.80;99.90;;;;;;4592270;19;19919;-33
2022/07/21 07:03:30;;;;;;;;;;;20.80;99.90;;;;;;4590604;19;19938;-33
2022/07/21 07:05:03;;;;;;;;;;;20.80;99.90;;;;;;4591666;19;20306;-32
2022/07/21 07:06:34;;;;;;;;;;;20.80;99.90;;;;;;4591143;19;20258;-32
2022/07/21 07:08:05;;;;;;;;;;;20.80;99.90;;;;;;4592248;19;19935;-33
2022/07/21 07:09:36;;;;;;;;;;;20.80;99.90;;;;;;4591392;19;19923;-33
2022/07/21 07:11:07;;;;;;;;;;;20.90;99.90;;;;;;4589827;19;19923;-32
2022/07/21 07:12:38;;;;;;;;;;;20.90;99.90;;;;;;4590947;19;20344;-32
2022/07/21 07:14:09;;;;;;;;;;;20.90;99.90;;;;;;4591270;19;19922;-31
2022/07/21 07:15:40;;;;;;;;;;;20.90;99.90;;;;;;4590881;19;19918;-33
2022/07/21 07:17:15;;;;;;;;;;;20.90;99.90;;;;;;4588477;19;19925;-31
2022/07/21 07:18:45;;;;;;;;;;;20.90;99.90;;;;;;4589124;19;19918;-31
2022/07/21 07:20:16;;;;;;;;;;;21.00;99.90;;;;;;4590435;19;19922;-30
2022/07/21 07:21:48;;;;;;;;;;;21.00;99.90;;;;;;4591419;19;19917;-32
2022/07/21 07:23:19;;;;;;;;;;;21.00;99.90;;;;;;4590552;19;19926;-33
2022/07/21 07:24:49;;;;;;;;;;;21.00;99.90;;;;;;4590580;19;19919;-32
2022/07/21 07:26:20;;;;;;;;;;;21.00;99.90;;;;;;4590402;19;19926;-34
2022/07/21 07:27:54;;;;;;;;;;;21.00;99.90;;;;;;4590068;19;20385;-33
2022/07/21 07:29:25;;;;;;;;;;;21.00;99.90;;;;;;4590438;19;19918;-34
2022/07/21 07:30:55;;;;;;;;;;;21.00;99.90;;;;;;4590001;19;20314;-34
2022/07/21 07:32:26;;;;;;;;;;;21.10;99.90;;;;;;4592155;19;19914;-33
2022/07/21 07:33:58;;;;;;;;;;;21.10;99.90;;;;;;4590859;19;19932;-33
2022/07/21 07:35:29;;;;;;;;;;;21.10;99.90;;;;;;4591603;19;20265;-33
2022/07/21 07:37:00;;;;;;;;;;;21.20;99.90;;;;;;4590915;19;19927;-33
2022/07/21 07:38:31;;;;;;;;;;;21.20;99.90;;;;;;4590757;19;19930;-32
2022/07/21 07:40:07;;;;;;;;;;;21.20;99.90;;;;;;4591656;19;19918;-32
2022/07/21 07:41:38;;;;;;;;;;;21.20;99.90;;;;;;4589345;19;19914;-31
2022/07/21 07:43:09;;;;;;;;;;;21.20;99.90;;;;;;4590762;19;19923;-32
2022/07/21 07:44:40;;;;;;;;;;;21.20;99.90;;;;;;4590061;19;19939;-32
2022/07/21 07:46:12;;;;;;;;;;;21.30;99.90;;;;;;4591131;19;19922;-32
2022/07/21 07:47:43;;;;;;;;;;;21.30;99.90;;;;;;4586654;19;19950;-32
2022/07/21 07:49:14;;;;;;;;;;;21.30;99.90;;;;;;4589444;19;19938;-32
2022/07/21 07:50:46;;;;;;;;;;;21.40;99.90;;;;;;4590664;19;19929;-32
2022/07/21 07:52:18;;;;;;;;;;;21.40;99.90;;;;;;4590140;19;19935;-32
2022/07/21 07:53:49;;;;;;;;;;;21.40;99.90;;;;;;4590853;19;19942;-32
2022/07/21 07:55:20;;;;;;;;;;;21.40;99.90;;;;;;4590540;19;19942;-33
2022/07/21 07:56:51;;;;;;;;;;;21.50;99.90;;;;;;4590782;19;20291;-31
2022/07/21 07:58:22;;;;;;;;;;;21.50;99.90;;;;;;4588976;19;20049;-32
2022/07/21 07:59:53;;;;;;;;;;;21.50;99.90;;;;;;4588670;19;19922;-32
2022/07/21 08:01:24;;;;;;;;;;;21.50;99.90;;;;;;4590708;19;19910;-33
2022/07/21 08:02:55;;;;;;;;;;;21.50;99.90;;;;;;4589387;19;19934;-33
2022/07/21 08:04:26;;;;;;;;;;;21.50;99.90;;;;;;4589837;19;19961;-33
2022/07/21 08:06:03;;;;;;;;;;;21.50;99.90;;;;;;4589105;19;19931;-33
2022/07/21 08:07:35;;;;;;;;;;;21.50;99.90;;;;;;4590254;19;20325;-31
2022/07/21 08:09:08;;;;;;;;;;;21.60;99.90;;;;;;4589635;19;19923;-33
2022/07/21 08:10:39;;;;;;;;;;;21.60;99.90;;;;;;4589026;19;19932;-33
2022/07/21 08:12:11;;;;;;;;;;;21.60;99.90;;;;;;4589106;19;20349;-32
2022/07/21 08:13:42;;;;;;;;;;;21.60;99.90;;;;;;4591274;19;19914;-32
2022/07/21 08:15:13;;;;;;;;;;;21.60;99.90;;;;;;4589766;19;20331;-32
2022/07/21 08:16:45;;;;;;;;;;;21.60;99.90;;;;;;4590594;19;19926;-33
2022/07/21 08:18:16;;;;;;;;;;;21.60;99.90;;;;;;4589885;19;19934;-31
2022/07/21 08:19:47;;;;;;;;;;;21.70;99.90;;;;;;4589121;19;20308;-36
2022/07/21 08:21:18;;;;;;;;;;;21.70;99.90;;;;;;4589691;19;20253;-32
2022/07/21 08:22:50;;;;;;;;;;;21.70;99.90;;;;;;4589668;19;20284;-32
2022/07/21 08:24:21;;;;;;;;;;;21.70;99.90;;;;;;4591122;19;19919;-32
2022/07/21 08:25:52;;;;;;;;;;;21.70;99.90;;;;;;4589432;19;19915;-32
2022/07/21 08:27:23;;;;;;;;;;;21.80;99.90;;;;;;4589653;19;19986;-32
2022/07/21 08:28:54;;;;;;;;;;;21.80;99.90;;;;;;4589164;19;20334;-33
2022/07/21 08:30:25;;;;;;;;;;;21.80;99.90;;;;;;4593674;19;19919;-32
2022/07/21 08:31:56;;;;;;;;;;;21.80;99.90;;;;;;4594284;19;20333;-32
2022/07/21 08:33:27;;;;;;;;;;;21.80;99.90;;;;;;4594193;19;20345;-33
2022/07/21 08:34:58;;;;;;;;;;;21.80;99.90;;;;;;4595582;19;19927;-31
2022/07/21 08:36:30;;;;;;;;;;;21.80;99.90;;;;;;4594381;19;19978;-33
2022/07/21 08:38:04;;;;;;;;;;;21.90;99.90;;;;;;4594716;19;20341;-31
2022/07/21 08:39:36;;;;;;;;;;;21.90;99.90;;;;;;4592740;19;20287;-31
2022/07/21 08:41:08;;;;;;;;;;;21.90;99.90;;;;;;4592809;19;19915;-32
2022/07/21 08:42:39;;;;;;;;;;;21.90;99.90;;;;;;4593743;19;19954;-32
2022/07/21 08:44:10;;;;;;;;;;;21.90;99.90;;;;;;4592423;19;19926;-32
2022/07/21 08:45:44;;;;;;;;;;;21.90;99.90;;;;;;4593296;19;19922;-32
2022/07/21 08:47:15;;;;;;;;;;;21.90;99.90;;;;;;4594215;19;19914;-31
2022/07/21 08:48:46;;;;;;;;;;;22.00;99.90;;;;;;4592836;19;19933;-32
2022/07/21 08:50:17;;;;;;;;;;;22.00;99.90;;;;;;4593151;19;19981;-32
2022/07/21 08:51:51;;;;;;;;;;;22.00;99.90;;;;;;4592966;19;20617;-33
2022/07/21 08:53:22;;;;;;;;;;;22.10;99.90;;;;;;4594356;19;19918;-33
2022/07/21 08:54:57;;;;;;;;;;;22.10;99.90;;;;;;4591624;19;19926;-33